Time;durP1;ratioP1;P1;durP2;ratioP2;P2;SDS_P1;SDS_P2;PMS_P1;PMS_P2;Temp;Humidity;BMP_temperature;BMP_pressure;BME280_temperature;BME280_humidity;BME280_pressure;Samples;Min_cycle;Max_cycle;Signal;HPM_P1;HPM_P2
2023/10/10 00:02:07;;;;;;;1.85;0.20;;;;;;;3.53;67.47;101505.38;5047598;28;20105;-68
2023/10/10 00:04:35;;;;;;;0.35;0.20;;;;;;;3.50;67.24;101505.31;5048070;28;20569;-69
2023/10/10 00:07:04;;;;;;;4.15;0.30;;;;;;;3.47;67.50;101500.97;5050013;28;20420;-68
2023/10/10 00:09:31;;;;;;;0.45;0.20;;;;;;;3.45;67.12;101491.44;5047853;28;20044;-69
2023/10/10 00:11:59;;;;;;;4.22;0.60;;;;;;;3.43;67.21;101498.28;5048547;28;20125;-69
2023/10/10 00:14:29;;;;;;;0.57;0.30;;;;;;;3.39;67.38;101489.59;5049299;28;20421;-68
2023/10/10 00:16:59;;;;;;;0.40;0.30;;;;;;;3.39;67.33;101492.19;5050088;28;20044;-69
2023/10/10 00:19:29;;;;;;;1.42;0.30;;;;;;;3.34;67.17;101484.31;5044670;28;20040;-69
2023/10/10 00:21:57;;;;;;;0.90;0.30;;;;;;;3.35;67.20;101491.22;5052226;28;20138;-68
2023/10/10 00:24:30;;;;;;;0.65;0.20;;;;;;;3.33;67.61;101482.59;5051814;28;20052;-69
2023/10/10 00:27:02;;;;;;;1.02;0.30;;;;;;;3.32;67.44;101485.13;5047936;28;20040;-68
2023/10/10 00:29:32;;;;;;;0.68;0.30;;;;;;;3.29;67.50;101485.94;5047766;28;20044;-68
2023/10/10 00:32:04;;;;;;;2.55;0.25;;;;;;;3.28;67.58;101488.50;5049281;28;20076;-70
2023/10/10 00:34:33;;;;;;;0.38;0.20;;;;;;;3.25;67.36;101478.09;5051928;28;20094;-69
2023/10/10 00:37:07;;;;;;;0.60;0.20;;;;;;;3.23;67.71;101475.47;5047347;28;20044;-68
2023/10/10 00:39:36;;;;;;;0.30;0.10;;;;;;;3.22;67.35;101472.88;5050450;28;20438;-71
2023/10/10 00:42:05;;;;;;;0.50;0.50;;;;;;;3.22;67.26;101481.47;5046162;28;20055;-68
2023/10/10 00:44:37;;;;;;;0.68;0.17;;;;;;;3.20;67.81;101477.09;5045683;28;20044;-69
2023/10/10 00:47:13;;;;;;;1.25;0.30;;;;;;;3.18;67.55;101466.72;5053088;28;20049;-69
2023/10/10 00:49:43;;;;;;;0.30;0.20;;;;;;;3.18;67.93;101481.34;5054852;28;20095;-69
2023/10/10 00:52:12;;;;;;;1.40;0.20;;;;;;;3.15;67.58;101477.00;5049395;28;20111;-69
2023/10/10 00:54:43;;;;;;;2.45;0.30;;;;;;;3.13;67.94;101474.38;5054877;28;20063;-70
2023/10/10 00:57:13;;;;;;;2.85;0.30;;;;;;;3.12;67.95;101482.09;5049197;28;20045;-68
2023/10/10 00:59:46;;;;;;;0.50;0.20;;;;;;;3.10;67.95;101474.31;5057166;28;20040;-69
2023/10/10 01:02:14;;;;;;;2.08;0.20;;;;;;;3.10;67.73;101468.25;5054078;28;20068;-69
2023/10/10 01:04:48;;;;;;;0.38;0.20;;;;;;;3.08;67.92;101478.56;5051461;28;20436;-68
2023/10/10 01:07:20;;;;;;;2.13;0.27;;;;;;;3.06;67.88;101476.78;5055041;28;20044;-69
2023/10/10 01:09:56;;;;;;;0.75;0.22;;;;;;;3.07;67.95;101478.53;5049638;28;20298;-73
2023/10/10 01:12:25;;;;;;;0.45;0.17;;;;;;;3.04;68.23;101476.72;5055620;28;20473;-73
2023/10/10 01:14:56;;;;;;;0.40;0.20;;;;;;;3.04;68.04;101481.03;5052100;28;20045;-73
2023/10/10 01:17:33;;;;;;;0.70;0.20;;;;;;;3.04;68.30;101488.78;5061149;28;20060;-74
2023/10/10 01:20:11;;;;;;;1.45;0.20;;;;;;;3.02;67.98;101486.19;5052996;28;20055;-73
2023/10/10 01:22:40;;;;;;;2.05;0.20;;;;;;;3.00;67.92;101484.38;5053793;28;20071;-74
2023/10/10 01:25:31;;;;;;;0.73;0.20;;;;;;;3.00;68.47;101492.13;5049666;28;20056;-74
2023/10/10 01:28:01;;;;;;;0.60;0.20;;;;;;;2.98;68.15;101489.50;5052152;28;20072;-78
2023/10/10 01:33:13;;;;;;;1.58;0.30;;;;;;;2.96;68.46;101479.97;5060179;28;20044;-77
2023/10/10 01:35:42;;;;;;;2.05;0.20;;;;;;;2.95;68.48;101483.41;5064098;28;20049;-78
2023/10/10 01:38:32;;;;;;;0.35;0.20;;;;;;;2.95;68.24;101475.66;5058525;28;20052;-78
2023/10/10 01:41:04;;;;;;;0.47;0.20;;;;;;;2.93;68.46;101468.75;5060463;28;20049;-78
2023/10/10 01:43:32;;;;;;;0.60;0.20;;;;;;;2.93;68.76;101475.59;5064005;28;20055;-78
2023/10/10 01:46:09;;;;;;;0.70;0.20;;;;;;;2.93;68.40;101476.50;5057676;28;20098;-78
2023/10/10 01:48:43;;;;;;;0.70;0.20;;;;;;;2.92;68.83;101466.13;5061434;28;20060;-77
2023/10/10 01:51:09;;;;;;;0.30;0.20;;;;;;;2.92;68.52;101467.00;5056452;28;20047;-78
2023/10/10 01:53:40;;;;;;;1.73;0.10;;;;;;;2.92;68.50;101467.00;5057741;28;20477;-78
2023/10/10 01:56:08;;;;;;;1.10;0.25;;;;;;;2.92;69.02;101464.41;5057318;28;20577;-77
2023/10/10 01:58:36;;;;;;;1.50;0.22;;;;;;;2.91;68.86;101457.53;5059831;28;20037;-78
2023/10/10 02:01:12;;;;;;;1.20;0.20;;;;;;;2.91;69.08;101457.53;5066206;28;20049;-77
2023/10/10 02:03:40;;;;;;;0.30;0.20;;;;;;;2.84;68.67;101453.03;5061199;28;20041;-77
2023/10/10 02:06:09;;;;;;;1.23;0.10;;;;;;;2.90;69.05;101460.94;5055762;28;20135;-78
2023/10/10 02:08:39;;;;;;;1.00;0.20;;;;;;;2.89;68.84;101460.91;5062618;28;20155;-78
2023/10/10 02:11:07;;;;;;;0.40;0.17;;;;;;;2.89;68.82;101474.66;5059782;28;20037;-78
2023/10/10 02:13:39;;;;;;;0.93;0.20;;;;;;;2.88;69.05;101470.34;5065551;28;20409;-77
2023/10/10 02:16:06;;;;;;;1.42;0.30;;;;;;;2.89;69.07;101466.94;5060398;28;20045;-77
2023/10/10 02:18:39;;;;;;;2.08;0.20;;;;;;;2.89;69.42;101469.50;5062685;28;20363;-72
2023/10/10 02:21:09;;;;;;;0.65;0.25;;;;;;;2.89;69.28;101466.94;5029657;28;20048;-72
2023/10/10 02:23:44;;;;;;;0.20;0.15;;;;;;;2.86;69.54;101466.00;5052861;28;20048;-71
2023/10/10 02:26:23;;;;;;;2.85;0.20;;;;;;;2.89;69.48;101464.34;5052368;28;20434;-71
2023/10/10 02:29:34;;;;;;;0.40;0.15;;;;;;;2.85;69.16;101462.53;5051111;28;20052;-70
2023/10/10 02:31:40;;;;;;;0.40;0.17;;;;;;;2.88;69.32;101472.94;5053515;28;20850;-71
2023/10/10 02:34:10;;;;;;;2.28;0.52;;;;;;;2.87;69.60;101466.00;5051042;28;20105;-71
2023/10/10 02:36:40;;;;;;;2.90;0.55;;;;;;;2.88;69.47;101461.75;5056141;28;20049;-71
2023/10/10 02:39:28;;;;;;;0.50;0.10;;;;;;;2.88;69.27;101456.59;5055412;28;20040;-74
2023/10/10 02:41:59;;;;;;;0.80;0.20;;;;;;;2.89;69.58;101455.75;5052967;28;20052;-72
2023/10/10 02:44:38;;;;;;;1.15;0.17;;;;;;;2.88;69.49;101452.28;5053621;28;20041;-73
2023/10/10 02:47:05;;;;;;;1.10;0.30;;;;;;;2.88;69.64;101449.72;5048583;28;20056;-74
2023/10/10 02:49:37;;;;;;;0.35;0.20;;;;;;;2.87;69.60;101444.50;5050629;28;20425;-73
2023/10/10 02:52:07;;;;;;;0.88;0.30;;;;;;;2.88;69.54;101457.44;5053455;28;20049;-74
2023/10/10 02:54:43;;;;;;;0.65;0.20;;;;;;;2.89;70.09;101458.31;5052172;28;20052;-74
2023/10/10 02:57:28;;;;;;;0.52;0.20;;;;;;;2.88;69.92;101452.28;5053304;28;20047;-74
2023/10/10 03:00:15;;;;;;;0.40;0.20;;;;;;;2.89;69.99;101460.91;5048805;28;20052;-75
2023/10/10 03:02:49;;;;;;;0.38;0.10;;;;;;;2.90;69.86;101466.09;5054982;28;20489;-74
2023/10/10 03:05:17;;;;;;;2.83;0.20;;;;;;;2.90;69.86;101460.06;5055162;28;20052;-74
2023/10/10 03:07:44;;;;;;;0.80;0.20;;;;;;;2.87;70.13;101449.66;5028271;28;20289;-74
2023/10/10 03:10:37;;;;;;;0.82;0.20;;;;;;;2.91;69.99;101457.53;5052313;28;20060;-74
2023/10/10 03:13:27;;;;;;;0.30;0.15;;;;;;;2.90;70.08;101463.53;5054684;28;20076;-74
2023/10/10 03:15:56;;;;;;;0.60;0.20;;;;;;;2.86;70.01;101458.25;5052915;28;20052;-74
2023/10/10 03:18:30;;;;;;;1.00;0.20;;;;;;;2.90;70.23;101466.09;5051320;28;20060;-74
2023/10/10 03:24:06;;;;;;;3.53;0.20;;;;;;;2.93;69.89;101457.53;5032280;28;20056;-75
2023/10/10 03:27:00;;;;;;;0.28;0.20;;;;;;;2.93;70.11;101455.84;5054743;28;20520;-74
2023/10/10 03:29:47;;;;;;;0.10;0.10;;;;;;;2.93;70.13;101453.28;5056735;28;20382;-77
2023/10/10 03:32:19;;;;;;;0.38;0.20;;;;;;;2.94;69.89;101451.56;5059602;28;20136;-77
2023/10/10 03:34:56;;;;;;;1.50;0.20;;;;;;;2.90;69.98;101448.03;5062077;28;20071;-77
2023/10/10 03:37:28;;;;;;;0.82;0.20;;;;;;;2.93;70.44;101455.84;5054387;28;20446;-77
2023/10/10 03:40:09;;;;;;;0.70;0.30;;;;;;;2.93;69.87;101455.84;5058994;28;20061;-78
2023/10/10 05:24:26;;;;;;;0.75;0.32;;;;;;;2.90;70.85;101417.09;5056848;28;20059;-73
2023/10/10 05:26:56;;;;;;;0.60;0.30;;;;;;;2.90;70.38;101414.50;5051594;28;20143;-74
2023/10/10 05:29:24;;;;;;;0.43;0.20;;;;;;;2.91;70.78;101413.66;5053349;28;20055;-73
2023/10/10 05:31:52;;;;;;;0.28;0.20;;;;;;;2.91;70.68;101416.22;5054019;28;20044;-73
2023/10/10 05:34:22;;;;;;;1.83;0.50;;;;;;;2.92;70.88;101417.97;5050247;28;20425;-73
2023/10/10 05:36:52;;;;;;;0.35;0.20;;;;;;;2.92;70.98;101417.97;5058410;28;20076;-73
2023/10/10 05:39:21;;;;;;;0.55;0.30;;;;;;;2.93;71.27;101417.16;5046691;28;20052;-73
2023/10/10 05:41:48;;;;;;;0.40;0.20;;;;;;;2.94;71.03;101412.84;5049944;28;20041;-73
2023/10/10 05:44:16;;;;;;;0.75;0.20;;;;;;;2.96;71.45;101415.44;5045850;28;20078;-74
2023/10/10 05:46:43;;;;;;;0.68;0.20;;;;;;;2.93;71.48;101417.16;5050455;28;20060;-73
2023/10/10 05:49:10;;;;;;;1.52;0.55;;;;;;;2.92;71.24;101412.81;5045651;28;20049;-76
2023/10/10 05:51:37;;;;;;;0.40;0.10;;;;;;;3.00;71.27;101419.88;5056814;28;20048;-75
2023/10/10 05:54:07;;;;;;;0.52;0.20;;;;;;;3.01;71.58;101416.44;5055497;28;20047;-75
2023/10/10 05:56:34;;;;;;;0.60;0.32;;;;;;;3.02;71.72;101424.22;5053146;28;20052;-77
2023/10/10 05:59:02;;;;;;;0.65;0.25;;;;;;;3.02;71.62;101423.38;5055452;28;20046;-76
2023/10/10 06:01:30;;;;;;;0.50;0.20;;;;;;;3.00;71.56;101404.38;5050288;28;20056;-76
2023/10/10 06:03:57;;;;;;;1.02;0.30;;;;;;;3.05;71.40;101415.69;5055130;28;20041;-75
2023/10/10 06:06:27;;;;;;;1.88;0.50;;;;;;;3.07;71.75;101416.56;5045343;28;20067;-76
2023/10/10 06:09:00;;;;;;;1.60;1.05;;;;;;;3.08;71.78;101419.19;5060753;28;20044;-83
2023/10/10 06:11:29;;;;;;;1.52;0.65;;;;;;;3.05;71.99;101402.78;5059456;28;20094;-83
2023/10/10 06:13:56;;;;;;;4.32;0.50;;;;;;;2.95;71.61;101390.50;5058800;28;20049;-83
2023/10/10 06:16:23;;;;;;;1.05;0.30;;;;;;;3.10;71.84;101414.94;5060683;28;20051;-83
2023/10/10 06:18:50;;;;;;;0.95;0.22;;;;;;;3.12;71.43;101417.56;5061369;28;20105;-83
2023/10/10 06:21:18;;;;;;;3.85;0.30;;;;;;;3.15;71.45;101430.53;5058117;28;20730;-83
2023/10/10 06:23:45;;;;;;;1.20;0.30;;;;;;;3.16;71.92;101424.53;5064452;28;20043;-82
2023/10/10 06:26:13;;;;;;;0.47;0.38;;;;;;;3.17;71.67;101426.28;5061917;28;20048;-82
2023/10/10 06:28:47;;;;;;;2.22;0.40;;;;;;;3.18;71.65;101435.75;5060705;28;20083;-83
2023/10/10 06:31:19;;;;;;;1.15;0.40;;;;;;;3.20;71.59;101435.81;5055122;28;20437;-83
2023/10/10 06:33:49;;;;;;;2.60;0.30;;;;;;;3.20;71.88;101439.25;5058283;28;20075;-82
2023/10/10 06:36:37;;;;;;;1.63;0.30;;;;;;;3.17;72.00;101428.84;5061085;28;20107;-82
2023/10/10 06:39:20;;;;;;;1.63;0.30;;;;;;;3.24;72.27;101435.03;5057320;28;20044;-83
2023/10/10 06:41:50;;;;;;;1.25;0.93;;;;;;;3.26;72.36;101429.06;5057516;28;20685;-82
2023/10/10 06:44:31;;;;;;;0.77;0.30;;;;;;;3.26;72.08;101428.19;5063022;28;20512;-82
2023/10/10 06:46:59;;;;;;;1.20;0.30;;;;;;;3.31;72.28;101434.31;5059067;28;20051;-83
2023/10/10 06:49:26;;;;;;;3.28;0.40;;;;;;;3.34;72.42;101437.84;5057556;28;20052;-83
2023/10/10 06:51:55;;;;;;;0.47;0.20;;;;;;;3.37;72.58;101437.91;5059110;28;20049;-83
2023/10/10 06:54:27;;;;;;;3.55;0.30;;;;;;;3.41;72.87;101432.81;5058571;28;20128;-83
2023/10/10 06:57:04;;;;;;;6.47;0.30;;;;;;;3.45;72.72;101430.31;5053771;28;20429;-82
2023/10/10 06:59:35;;;;;;;1.17;0.28;;;;;;;3.49;72.62;101426.09;5060752;28;20596;-78
2023/10/10 07:02:13;;;;;;;2.47;0.20;;;;;;;3.50;72.82;101426.13;5059482;28;20063;-76
2023/10/10 07:04:40;;;;;;;1.20;0.30;;;;;;;3.56;72.72;101427.97;5053330;28;20514;-77
2023/10/10 07:07:09;;;;;;;0.70;0.28;;;;;;;3.59;73.13;101428.91;5059002;28;20060;-76
2023/10/10 07:09:37;;;;;;;0.85;0.30;;;;;;;3.64;72.83;101438.44;5050562;28;20049;-77
2023/10/10 07:12:10;;;;;;;1.08;0.25;;;;;;;3.67;73.10;101433.34;5058809;28;20051;-77
2023/10/10 07:14:40;;;;;;;1.85;0.50;;;;;;;3.70;73.20;101433.41;5052182;28;20052;-77
2023/10/10 07:17:11;;;;;;;2.47;0.30;;;;;;;3.73;73.34;101436.94;5062932;28;20136;-77
2023/10/10 07:19:55;;;;;;;2.25;0.30;;;;;;;3.78;72.94;101440.47;5060436;28;20049;-77
2023/10/10 07:22:22;;;;;;;3.70;0.40;;;;;;;3.83;72.99;101437.97;5057967;28;20041;-76
2023/10/10 07:24:55;;;;;;;1.23;0.30;;;;;;;3.88;73.10;101441.53;5053115;28;20140;-76
2023/10/10 07:27:30;;;;;;;2.08;0.30;;;;;;;3.93;73.14;101436.47;5056145;28;20375;-78
2023/10/10 07:30:08;;;;;;;1.75;0.40;;;;;;;3.96;73.11;101433.94;5059555;28;20102;-76
2023/10/10 07:32:38;;;;;;;0.55;0.30;;;;;;;4.03;73.24;101431.47;5058745;28;21558;-76
2023/10/10 07:35:06;;;;;;;2.15;0.30;;;;;;;4.10;73.16;101426.41;5056549;28;20053;-75
2023/10/10 07:37:33;;;;;;;0.80;0.22;;;;;;;4.15;73.33;101415.31;5051355;28;20053;-76
2023/10/10 07:40:19;;;;;;;0.80;0.30;;;;;;;4.22;73.10;101417.19;5058879;28;20056;-75
2023/10/10 07:42:50;;;;;;;0.98;0.30;;;;;;;4.31;73.13;101420.78;5062941;28;20048;-76
2023/10/10 07:45:29;;;;;;;1.38;0.20;;;;;;;4.37;73.04;101424.34;5048639;28;20048;-75
2023/10/10 07:50:48;;;;;;;0.82;0.52;;;;;;;4.56;73.00;101427.25;5056548;28;20055;-76
2023/10/10 07:53:16;;;;;;;2.77;0.20;;;;;;;4.64;72.82;101429.13;5052575;28;20060;-77
2023/10/10 07:56:00;;;;;;;1.75;0.30;;;;;;;4.74;72.86;101430.13;5058367;28;20076;-75
2023/10/10 07:58:42;;;;;;;0.70;0.30;;;;;;;4.81;72.80;101419.03;5053026;28;20055;-75
2023/10/10 08:01:16;;;;;;;0.60;0.20;;;;;;;4.92;72.68;101407.13;5057400;28;20123;-75
2023/10/10 08:03:45;;;;;;;1.50;0.10;;;;;;;5.02;72.61;101407.25;5059802;28;20128;-76
2023/10/10 08:06:16;;;;;;;4.15;0.20;;;;;;;5.11;72.51;101403.06;5062039;28;20048;-76
2023/10/10 08:08:44;;;;;;;2.33;0.30;;;;;;;5.18;72.34;101404.03;5058876;28;20490;-78
2023/10/10 08:11:13;;;;;;;0.40;0.15;;;;;;;5.28;72.23;101399.84;5061010;28;20051;-78
2023/10/10 08:13:48;;;;;;;3.15;0.20;;;;;;;5.36;72.12;101393.03;5055570;28;20049;-77
2023/10/10 08:16:22;;;;;;;1.85;0.30;;;;;;;5.44;71.86;101396.59;5050913;28;20048;-78
2023/10/10 08:18:53;;;;;;;1.38;0.55;;;;;;;5.53;71.96;101401.88;5057453;28;20048;-78
2023/10/10 08:21:24;;;;;;;0.73;0.30;;;;;;;5.61;71.96;101400.25;5049550;28;20478;-76
2023/10/10 08:23:56;;;;;;;0.77;0.20;;;;;;;5.69;71.76;101397.72;5059128;28;20045;-77
2023/10/10 08:26:29;;;;;;;1.08;0.20;;;;;;;5.77;70.90;101401.28;5059361;28;20140;-77
2023/10/10 08:28:56;;;;;;;0.93;0.25;;;;;;;5.85;70.97;101393.59;5049991;28;20065;-69
2023/10/10 08:31:24;;;;;;;3.08;0.10;;;;;;;5.93;70.80;101385.91;5047665;28;20053;-69
2023/10/10 08:33:51;;;;;;;2.50;0.25;;;;;;;6.00;70.58;101393.78;5045372;28;20051;-69
2023/10/10 08:36:25;;;;;;;3.00;0.20;;;;;;;6.07;70.35;101395.59;5048779;28;20044;-70
2023/10/10 08:38:53;;;;;;;0.70;0.20;;;;;;;6.14;70.22;101396.53;5046258;28;20044;-69
2023/10/10 08:41:23;;;;;;;0.93;0.30;;;;;;;6.22;69.84;101394.00;5048649;28;20055;-69
2023/10/10 08:43:57;;;;;;;2.13;0.30;;;;;;;6.29;70.08;101393.22;5043290;28;20160;-69
2023/10/10 08:46:29;;;;;;;3.42;0.25;;;;;;;6.35;69.89;101389.78;5045076;28;20052;-69
2023/10/10 08:48:58;;;;;;;1.50;0.20;;;;;;;6.39;69.80;101381.19;5045168;28;20122;-69
2023/10/10 08:51:32;;;;;;;1.05;0.20;;;;;;;6.50;69.67;101398.59;5051823;28;20049;-70
2023/10/10 08:54:00;;;;;;;0.20;0.10;;;;;;;6.54;69.26;101386.50;5047582;28;20044;-70
2023/10/10 08:56:27;;;;;;;1.45;0.20;;;;;;;6.63;69.38;101380.50;5047378;28;20052;-69
2023/10/10 08:58:54;;;;;;;1.08;0.10;;;;;;;6.65;68.67;101374.47;5048424;28;20056;-70
2023/10/10 09:01:22;;;;;;;2.22;0.20;;;;;;;6.74;68.68;101374.56;5049513;28;20095;-69
2023/10/10 09:03:51;;;;;;;4.15;0.25;;;;;;;6.76;68.39;101362.44;5048958;28;20148;-69
2023/10/10 09:06:20;;;;;;;0.25;0.10;;;;;;;6.86;68.45;101368.56;5042755;28;20099;-70
2023/10/10 09:08:49;;;;;;;0.32;0.17;;;;;;;6.90;68.06;101359.91;5051427;28;20064;-69
2023/10/10 09:11:16;;;;;;;0.63;0.20;;;;;;;6.97;67.93;101364.31;5044978;28;20067;-70
2023/10/10 09:13:52;;;;;;;1.27;0.20;;;;;;;7.03;67.54;101360.88;5048832;28;20110;-70
2023/10/10 09:16:21;;;;;;;1.17;0.10;;;;;;;7.09;67.58;101360.03;5046373;28;20540;-70
2023/10/10 09:19:08;;;;;;;0.52;0.10;;;;;;;7.15;67.59;101367.88;5055551;28;20051;-78
2023/10/10 09:21:50;;;;;;;0.35;0.20;;;;;;;7.21;66.95;101360.97;5062257;28;20052;-78
2023/10/10 09:24:28;;;;;;;2.70;0.20;;;;;;;7.29;66.64;101358.41;5058875;28;20127;-77
2023/10/10 09:26:58;;;;;;;1.40;0.10;;;;;;;7.40;66.55;101361.91;5052656;28;20768;-78
2023/10/10 09:29:42;;;;;;;1.20;0.20;;;;;;;7.55;66.20;101361.09;5053191;28;20059;-76
2023/10/10 09:32:13;;;;;;;0.70;0.10;;;;;;;7.63;66.33;101336.00;5058457;28;20049;-77
2023/10/10 09:34:41;;;;;;;0.45;0.20;;;;;;;7.86;65.76;101348.19;5063177;28;20052;-78
2023/10/10 09:37:13;;;;;;;0.28;0.10;;;;;;;7.99;65.19;101336.06;5053207;28;20130;-77
2023/10/10 09:39:42;;;;;;;1.15;0.20;;;;;;;8.12;64.68;101337.81;5055949;28;20048;-75
2023/10/10 09:42:27;;;;;;;1.75;0.20;;;;;;;8.19;64.63;101338.66;5048002;28;20044;-75
2023/10/10 09:47:43;;;;;;;0.77;0.20;;;;;;;8.26;63.89;101333.47;5051424;28;20048;-75
2023/10/10 09:53:01;;;;;;;1.27;0.20;;;;;;;8.33;64.00;101331.72;5017019;28;20506;-76
2023/10/10 09:55:42;;;;;;;1.80;0.20;;;;;;;8.34;63.27;101333.47;5049933;28;20055;-74
2023/10/10 09:58:27;;;;;;;0.40;0.17;;;;;;;8.34;63.40;101323.94;5049858;28;20048;-75
2023/10/10 10:01:04;;;;;;;0.35;0.08;;;;;;;8.43;63.10;101330.91;5052675;28;20040;-74
2023/10/10 10:03:49;;;;;;;0.17;0.08;;;;;;;8.46;63.06;101325.69;5052420;28;20520;-74
2023/10/10 10:06:56;;;;;;;0.55;0.10;;;;;;;8.52;63.06;101317.00;5030512;28;20041;-75
2023/10/10 10:09:51;;;;;;;2.03;0.20;;;;;;;8.54;63.18;101310.94;5045398;28;20428;-75
2023/10/10 10:12:31;;;;;;;0.50;0.10;;;;;;;8.60;62.15;101310.06;5047856;28;20048;-75
2023/10/10 10:15:15;;;;;;;0.77;0.30;;;;;;;8.63;62.24;101315.25;5054070;28;20040;-75
2023/10/10 10:17:56;;;;;;;0.20;0.10;;;;;;;8.65;61.52;101303.09;5046452;28;20045;-76
2023/10/10 10:20:25;;;;;;;1.10;0.10;;;;;;;8.70;61.67;101311.75;5048144;28;20044;-73
2023/10/10 10:22:54;;;;;;;0.35;0.10;;;;;;;8.73;61.14;101311.72;5049732;28;20672;-74
2023/10/10 10:25:25;;;;;;;0.40;0.10;;;;;;;8.77;60.67;101303.06;5050477;28;20421;-76
2023/10/10 10:28:10;;;;;;;1.10;0.10;;;;;;;8.80;61.09;101296.97;5051102;28;20048;-76
2023/10/10 10:30:51;;;;;;;0.38;0.15;;;;;;;8.84;61.15;101295.22;5048064;28;20062;-75
2023/10/10 10:33:22;;;;;;;0.93;0.10;;;;;;;8.88;61.44;101286.50;5047686;28;20049;-75
2023/10/10 10:36:14;;;;;;;0.30;0.10;;;;;;;8.86;60.35;101289.13;5047500;28;20063;-74
2023/10/10 10:39:18;;;;;;;0.65;0.10;;;;;;;8.91;60.62;101278.72;5046640;28;20509;-75
2023/10/10 10:41:42;;;;;;;0.28;0.10;;;;;;;8.95;60.54;101280.44;5048537;28;20121;-74
2023/10/10 10:44:12;;;;;;;0.95;0.43;;;;;;;8.96;59.97;101288.22;5053198;28;20048;-74
2023/10/10 10:46:47;;;;;;;0.32;0.10;;;;;;;8.98;59.57;101280.41;5046253;28;20429;-75
2023/10/10 10:49:14;;;;;;;;;;;;;;;9.02;60.47;101279.50;5054309;28;20139;-78
2023/10/10 10:51:48;;;;;;;1.60;0.60;;;;;;;9.04;59.26;101276.91;5054620;28;19924;-78
2023/10/10 10:54:36;;;;;;;0.50;0.10;;;;;;;9.04;59.65;101269.97;5056486;28;20456;-78
2023/10/10 10:57:03;;;;;;;0.30;0.10;;;;;;;9.07;59.51;101267.34;5050983;28;20045;-78
2023/10/10 10:59:45;;;;;;;1.08;0.10;;;;;;;9.09;59.51;101267.34;5054586;28;20056;-77
2023/10/10 11:02:15;;;;;;;0.35;0.10;;;;;;;9.10;59.04;101262.09;5055268;28;20057;-78
2023/10/10 11:04:49;;;;;;;1.33;0.15;;;;;;;9.11;58.76;101260.41;5052129;28;20041;-77
2023/10/10 11:07:26;;;;;;;1.85;0.20;;;;;;;9.13;58.57;101269.06;5054534;28;20087;-80
2023/10/10 11:10:06;;;;;;;0.75;0.20;;;;;;;9.14;58.02;101262.97;5054331;28;20037;-77
2023/10/10 11:12:36;;;;;;;0.30;0.10;;;;;;;9.13;57.98;101267.31;5054871;28;20046;-78
2023/10/10 11:15:07;;;;;;;0.30;0.10;;;;;;;9.16;58.14;101269.03;5052399;28;20091;-78
2023/10/10 11:17:45;;;;;;;0.35;0.10;;;;;;;9.17;58.22;101268.19;5054020;28;20052;-77
2023/10/10 11:20:29;;;;;;;0.85;0.30;;;;;;;9.18;57.82;101257.72;5053610;28;20041;-77
2023/10/10 11:23:08;;;;;;;1.77;0.20;;;;;;;9.19;57.67;101256.88;5050812;28;20051;-78
2023/10/10 11:25:46;;;;;;;0.35;0.10;;;;;;;9.22;57.73;101250.75;5050111;28;20049;-77
2023/10/10 11:28:21;;;;;;;0.50;0.10;;;;;;;9.23;57.71;101250.75;5049556;28;20056;-77
2023/10/10 11:30:49;;;;;;;;;;;;;;;9.24;58.46;101246.41;5053795;28;20135;-78
2023/10/10 11:33:19;;;;;;;0.85;0.10;;;;;;;9.18;57.96;101231.66;5056167;28;19929;-78
2023/10/10 11:35:50;;;;;;;1.65;0.20;;;;;;;9.26;57.93;101241.19;5058531;28;21419;-78
2023/10/10 11:38:33;;;;;;;5.13;1.05;;;;;;;9.27;57.47;101219.47;5049489;28;20409;-70
2023/10/10 11:41:08;;;;;;;0.70;0.10;;;;;;;9.28;57.50;101222.06;5041779;28;20041;-70
2023/10/10 11:43:38;;;;;;;2.08;0.20;;;;;;;9.30;57.57;101214.22;5046014;28;20048;-70
2023/10/10 11:46:06;;;;;;;2.38;0.20;;;;;;;9.30;57.70;101214.22;5049263;28;20045;-70
2023/10/10 11:48:43;;;;;;;0.65;0.10;;;;;;;9.34;58.07;101213.34;5049124;28;20052;-70
2023/10/10 11:51:11;;;;;;;0.75;0.20;;;;;;;9.32;57.27;101204.66;5047728;28;20041;-71
2023/10/10 11:53:38;;;;;;;0.52;0.10;;;;;;;9.35;56.82;101199.44;5042350;28;20056;-72
2023/10/10 11:56:11;;;;;;;2.45;0.20;;;;;;;9.37;56.88;101190.72;5042448;28;20163;-70
2023/10/10 11:58:38;;;;;;;0.70;0.20;;;;;;;9.39;56.75;101186.38;5050640;28;20041;-77
2023/10/10 12:01:06;;;;;;;0.40;0.10;;;;;;;9.41;56.77;101181.97;5050674;28;20040;-78
2023/10/10 12:03:41;;;;;;;0.43;0.10;;;;;;;9.41;57.04;101179.38;5053573;28;20655;-78
2023/10/10 12:06:14;;;;;;;0.40;0.20;;;;;;;9.40;56.82;101175.06;5052068;28;20048;-78
2023/10/10 12:08:44;;;;;;;0.38;0.10;;;;;;;9.44;57.02;101170.66;5058039;28;20045;-78
2023/10/10 12:11:15;;;;;;;0.70;0.20;;;;;;;9.46;57.08;101169.78;5048207;28;20090;-78
2023/10/10 12:13:45;;;;;;;1.42;0.25;;;;;;;9.48;57.07;101168.91;5053609;28;20044;-78
2023/10/10 12:16:11;;;;;;;0.70;0.20;;;;;;;9.48;57.48;101164.56;5052295;28;20482;-78
2023/10/10 12:18:44;;;;;;;0.30;0.20;;;;;;;9.51;56.94;101168.91;5056390;28;20048;-78
2023/10/10 12:21:14;;;;;;;0.57;0.20;;;;;;;9.53;57.67;101159.31;5051221;28;20041;-78
2023/10/10 12:23:40;;;;;;;1.05;0.20;;;;;;;9.53;57.51;101154.94;5056215;28;20505;-77
2023/10/10 12:26:08;;;;;;;1.35;0.28;;;;;;;9.51;57.04;101140.22;5049673;28;20055;-77
2023/10/10 12:28:38;;;;;;;0.47;0.13;;;;;;;9.51;57.07;101141.06;5049739;28;20060;-77
2023/10/10 12:31:08;;;;;;;0.30;0.20;;;;;;;9.55;56.93;101147.97;5052684;28;20045;-76
2023/10/10 12:33:36;;;;;;;1.17;0.10;;;;;;;9.57;56.64;101151.44;5057095;28;20067;-78
2023/10/10 12:36:07;;;;;;;1.63;0.10;;;;;;;9.58;56.55;101153.16;5054697;28;20048;-78
2023/10/10 12:38:34;;;;;;;0.40;0.17;;;;;;;9.58;56.67;101153.16;5056278;28;20045;-78
2023/10/10 12:41:01;;;;;;;3.47;0.77;;;;;;;9.60;56.69;101141.00;5053385;28;20051;-77
2023/10/10 12:43:28;;;;;;;0.95;0.10;;;;;;;9.60;56.58;101142.75;5059711;28;20054;-78
2023/10/10 12:45:56;;;;;;;1.05;0.20;;;;;;;9.62;56.59;101138.34;5056101;28;20047;-78
2023/10/10 12:48:23;;;;;;;0.35;0.10;;;;;;;9.62;56.21;101131.41;5058685;28;20052;-70
2023/10/10 12:50:51;;;;;;;0.30;0.13;;;;;;;9.53;56.33;101117.56;5054588;28;20758;-70
2023/10/10 12:53:20;;;;;;;0.73;0.28;;;;;;;9.65;55.98;101131.38;5049126;28;20064;-70
2023/10/10 12:55:50;;;;;;;0.40;0.20;;;;;;;9.65;55.86;101118.34;5047743;28;20059;-71
2023/10/10 12:58:20;;;;;;;0.30;0.10;;;;;;;9.67;56.13;101123.53;5051269;28;20525;-70
2023/10/10 13:00:51;;;;;;;0.68;0.10;;;;;;;9.68;55.74;101122.69;5046187;28;20508;-71
2023/10/10 13:03:27;;;;;;;0.45;0.17;;;;;;;9.66;55.87;101114.84;5050303;28;21423;-70
2023/10/10 13:05:58;;;;;;;1.05;0.20;;;;;;;9.67;55.57;101118.31;5051069;28;20873;-71
2023/10/10 13:08:25;;;;;;;2.13;0.20;;;;;;;9.69;55.55;101117.44;5044691;28;20059;-75
2023/10/10 13:10:55;;;;;;;1.73;0.15;;;;;;;9.70;55.59;101105.25;5055950;28;20055;-74
2023/10/10 13:13:31;;;;;;;0.60;0.20;;;;;;;9.71;55.40;101103.53;5052904;28;20137;-75
2023/10/10 13:16:22;;;;;;;0.85;0.20;;;;;;;9.70;55.91;101094.81;5054329;28;20132;-74
2023/10/10 13:18:50;;;;;;;1.45;0.28;;;;;;;9.73;55.51;101109.56;5055230;28;20079;-74
2023/10/10 13:21:19;;;;;;;2.08;0.17;;;;;;;9.73;55.82;101101.75;5043186;28;20762;-74
2023/10/10 13:23:47;;;;;;;2.78;0.95;;;;;;;9.73;55.30;101093.91;5054399;28;20053;-74
2023/10/10 13:26:16;;;;;;;3.13;0.30;;;;;;;9.73;56.23;101105.22;5049053;28;20048;-74
2023/10/10 13:28:45;;;;;;;3.88;0.10;;;;;;;9.76;56.22;101114.75;5054176;28;20069;-74
2023/10/10 13:31:13;;;;;;;0.50;0.20;;;;;;;9.76;55.46;101117.38;5049014;28;20493;-74
2023/10/10 13:33:40;;;;;;;0.50;0.22;;;;;;;9.77;55.71;101112.16;5053458;28;20045;-74
2023/10/10 13:36:11;;;;;;;0.88;0.10;;;;;;;9.78;56.01;101113.88;5048902;28;20045;-74
2023/10/10 13:38:39;;;;;;;0.30;0.10;;;;;;;9.78;55.97;101108.66;5049682;28;20049;-74
2023/10/10 13:41:08;;;;;;;0.80;0.10;;;;;;;9.79;56.05;101113.00;5050292;28;20155;-73
2023/10/10 13:43:36;;;;;;;0.57;0.20;;;;;;;9.78;55.68;101092.13;5049940;28;20148;-73
2023/10/10 13:46:03;;;;;;;2.90;0.10;;;;;;;9.80;56.18;101079.94;5054899;28;20045;-74
2023/10/10 13:48:30;;;;;;;0.22;0.10;;;;;;;9.82;56.55;101070.38;5052240;28;20395;-74
2023/10/10 13:50:59;;;;;;;2.15;0.20;;;;;;;9.81;55.72;101072.09;5052793;28;20048;-73
2023/10/10 13:53:28;;;;;;;0.52;0.20;;;;;;;9.81;56.06;101060.78;5046154;28;20041;-73
2023/10/10 13:55:54;;;;;;;1.85;0.20;;;;;;;9.82;55.73;101068.63;5055788;28;20044;-74